Denver International Airport
KDEN : rendu visible

Aérodrome :











RETROUVEZ-NOUS SUR...

 
LOGIN :

S'inscrire | Disclaimer

   EN    FR    IT 

 









Légende :    VFR   VFR Marginal   IFR   IFR Intensif   IFR Très Intensif
Visi : 
Plafond : 
>= 8 km
>= 3000ft
5 à 8 km
1000 à 3000 ft
1500m à 5 km
500 à 1000 ft
800 à 1500m
200 à 500 ft
< 800m
< 200 ft
Symboles :   Orages  Brouillard  Fortes neiges  Fortes précipitations  Vent > 20 kt






- Altitude de l'aérodrome : 5431 ft
- Code IATA : DEN


KDEN - Denver International

DERNIER METAR :
  • 231953Z 30014KT 10SM FEW030 SCT060 BKN095 03/M02 A2998 RMK AO2 SLP150 T00331022

METARs EXPIRÉS :
  • 231853Z 29015KT 10SM FEW030 SCT060 BKN090 02/M01 A3001 RMK AO2 SNE16 SLP161 P0000 T00221011
  • 231753Z 29017KT 8SM -SN FEW010 SCT030 BKN060 02/M01 A3001 RMK AO2 SNB03E22B41 SLP157 P0000 60000 T00171011 10022 20000 56002

TAF KDEN
Valide du 23 à 18h jusqu'au 25 à 00h UTC


231736Z 2318/2424 30014G20KT P6SM VCSH SCT025 OVC050
TEMPO 2318/2321 4SM -SN BR OVC020
FM232200 34012KT P6SM VCSH SCT015 OVC025
FM240100 34006KT P6SM SCT025 OVC070
FM240300 18006KT P6SM SCT040 BKN070
FM240600 21008KT P6SM FEW100 SCT220
FM241200 24006KT P6SM SCT100 SCT220
FM241800 32020G30KT P6SM SCT100 BKN200



MET'MAP, la Météo Aéronautique d'un coup d'oeil ! - Copyright ORBIFLY Décembre 2007 - Disclaimer

ORBIFLY MET'MAP TEAM :

Programmation & Développement : Alexandra Zaïnal
Sur une idée originale de : Baudouin d'Aumeries
Assistance à la programmation : Marc-Olivier Méhu
Soutien technique & logistique : Manuel Goepfert

Contact : metmap@orbifly.com




SOURCES & CREDITS :

   NOAA       Earth
Advisory